sensor_id;sensor_type;location;lat;lon;timestamp;pressure;altitude;pressure_sealevel;temperature;humidity
70009;BME280;59542;37.950;-122.338;2023-05-24T00:01:48;100905.66;;;20.20;49.70
70009;BME280;59542;37.950;-122.338;2023-05-24T00:04:14;100907.81;;;20.08;48.60
70009;BME280;59542;37.950;-122.338;2023-05-24T00:06:40;100901.53;;;20.02;50.03
70009;BME280;59542;37.950;-122.338;2023-05-24T00:09:09;100896.66;;;19.99;49.68
70009;BME280;59542;37.950;-122.338;2023-05-24T00:11:37;100902.31;;;19.93;49.40
70009;BME280;59542;37.950;-122.338;2023-05-24T00:14:03;100913.34;;;19.71;50.36
70009;BME280;59542;37.950;-122.338;2023-05-24T00:16:29;100916.53;;;19.10;51.25
70009;BME280;59542;37.950;-122.338;2023-05-24T00:18:55;100910.25;;;19.05;51.89
70009;BME280;59542;37.950;-122.338;2023-05-24T00:21:22;100907.66;;;18.83;52.53
70009;BME280;59542;37.950;-122.338;2023-05-24T00:23:49;100908.53;;;18.61;53.75
70009;BME280;59542;37.950;-122.338;2023-05-24T00:26:16;100911.03;;;18.41;54.00
70009;BME280;59542;37.950;-122.338;2023-05-24T00:28:42;100902.47;;;18.22;54.87
70009;BME280;59542;37.950;-122.338;2023-05-24T00:31:09;100894.91;;;18.02;54.91
70009;BME280;59542;37.950;-122.338;2023-05-24T00:33:36;100904.69;;;18.30;55.16
70009;BME280;59542;37.950;-122.338;2023-05-24T00:36:02;100902.03;;;18.08;54.81
70009;BME280;59542;37.950;-122.338;2023-05-24T00:38:28;100894.91;;;18.02;54.87
70009;BME280;59542;37.950;-122.338;2023-05-24T00:40:54;100900.78;;;17.94;55.22
70009;BME280;59542;37.950;-122.338;2023-05-24T00:43:21;100893.69;;;17.88;55.91
70009;BME280;59542;37.950;-122.338;2023-05-24T00:45:49;100903.81;;;17.76;55.92
70009;BME280;59542;37.950;-122.338;2023-05-24T00:48:20;100889.22;;;17.77;56.87
70009;BME280;59542;37.950;-122.338;2023-05-24T00:50:48;100907.94;;;17.61;57.16
70009;BME280;59542;37.950;-122.338;2023-05-24T00:53:14;100902.94;;;17.53;57.75
70009;BME280;59542;37.950;-122.338;2023-05-24T00:55:40;100900.09;;;17.43;57.80
70009;BME280;59542;37.950;-122.338;2023-05-24T00:58:07;100913.59;;;17.38;57.83
70009;BME280;59542;37.950;-122.338;2023-05-24T01:00:33;100891.63;;;17.34;58.42
70009;BME280;59542;37.950;-122.338;2023-05-24T01:02:59;100894.38;;;17.39;58.11
70009;BME280;59542;37.950;-122.338;2023-05-24T01:05:27;100887.72;;;17.47;57.69
70009;BME280;59542;37.950;-122.338;2023-05-24T01:08:03;100886.72;;;17.53;57.48
70009;BME280;59542;37.950;-122.338;2023-05-24T01:10:53;100889.41;;;17.53;57.52
70009;BME280;59542;37.950;-122.338;2023-05-24T01:13:34;100889.56;;;17.63;57.37
70009;BME280;59542;37.950;-122.338;2023-05-24T01:16:13;100897.78;;;17.52;57.22
70009;BME280;59542;37.950;-122.338;2023-05-24T01:18:56;100884.41;;;17.23;57.66
70009;BME280;59542;37.950;-122.338;2023-05-24T01:27:06;100878.63;;;16.98;58.96
70009;BME280;59542;37.950;-122.338;2023-05-24T01:29:34;100882.97;;;16.99;59.15
70009;BME280;59542;37.950;-122.338;2023-05-24T01:32:01;100867.16;;;16.91;58.98
70009;BME280;59542;37.950;-122.338;2023-05-24T01:34:28;100875.19;;;16.69;59.48
70009;BME280;59542;37.950;-122.338;2023-05-24T01:36:54;100866.44;;;16.95;59.05
70009;BME280;59542;37.950;-122.338;2023-05-24T01:39:23;100863.13;;;16.93;58.36
70009;BME280;59542;37.950;-122.338;2023-05-24T01:44:47;100873.22;;;16.81;58.62
70009;BME280;59542;37.950;-122.338;2023-05-24T01:47:46;100850.44;;;16.60;58.59
70009;BME280;59542;37.950;-122.338;2023-05-24T01:50:24;100864.13;;;16.70;58.37
70009;BME280;59542;37.950;-122.338;2023-05-24T01:52:51;100868.50;;;16.71;58.85
70009;BME280;59542;37.950;-122.338;2023-05-24T01:55:19;100869.22;;;16.67;58.87
70009;BME280;59542;37.950;-122.338;2023-05-24T01:57:49;100870.22;;;16.77;59.14
70009;BME280;59542;37.950;-122.338;2023-05-24T02:00:18;100867.63;;;17.04;58.24
70009;BME280;59542;37.950;-122.338;2023-05-24T02:02:45;100874.56;;;16.95;58.05
70009;BME280;59542;37.950;-122.338;2023-05-24T02:05:11;100877.56;;;16.99;57.98
70009;BME280;59542;37.950;-122.338;2023-05-24T02:07:38;100873.13;;;17.09;57.61
70009;BME280;59542;37.950;-122.338;2023-05-24T02:10:06;100876.81;;;17.03;58.03
70009;BME280;59542;37.950;-122.338;2023-05-24T02:12:32;100872.75;;;16.84;58.13
70009;BME280;59542;37.950;-122.338;2023-05-24T02:14:58;100871.09;;;17.17;58.01
70009;BME280;59542;37.950;-122.338;2023-05-24T02:17:26;100872.38;;;17.14;57.12
70009;BME280;59542;37.950;-122.338;2023-05-24T02:19:52;100867.63;;;17.04;57.46
70009;BME280;59542;37.950;-122.338;2023-05-24T02:22:18;100876.53;;;16.83;57.80
70009;BME280;59542;37.950;-122.338;2023-05-24T02:24:47;100875.13;;;16.80;58.19
70009;BME280;59542;37.950;-122.338;2023-05-24T02:27:13;100883.19;;;16.47;58.95
70009;BME280;59542;37.950;-122.338;2023-05-24T02:29:39;100882.28;;;16.41;59.55
70009;BME280;59542;37.950;-122.338;2023-05-24T02:32:07;100878.72;;;16.24;60.02
70009;BME280;59542;37.950;-122.338;2023-05-24T02:34:33;100885.31;;;15.99;61.03
70009;BME280;59542;37.950;-122.338;2023-05-24T02:36:59;100881.41;;;15.67;61.89
70009;BME280;59542;37.950;-122.338;2023-05-24T02:39:26;100879.75;;;15.54;62.63
70009;BME280;59542;37.950;-122.338;2023-05-24T02:41:53;100888.47;;;15.44;63.03
70009;BME280;59542;37.950;-122.338;2023-05-24T02:44:19;100881.56;;;15.25;64.22
70009;BME280;59542;37.950;-122.338;2023-05-24T02:46:45;100889.16;;;15.04;64.77
70009;BME280;59542;37.950;-122.338;2023-05-24T02:49:11;100891.66;;;14.94;65.33
70009;BME280;59542;37.950;-122.338;2023-05-24T02:51:38;100900.75;;;14.82;65.84
70009;BME280;59542;37.950;-122.338;2023-05-24T02:54:05;100897.34;;;14.74;66.31
70009;BME280;59542;37.950;-122.338;2023-05-24T02:56:31;100900.88;;;14.75;66.54
70009;BME280;59542;37.950;-122.338;2023-05-24T02:58:59;100898.06;;;14.70;67.21
70009;BME280;59542;37.950;-122.338;2023-05-24T03:01:25;100899.34;;;14.67;67.19
70009;BME280;59542;37.950;-122.338;2023-05-24T03:03:51;100896.03;;;14.53;67.24
70009;BME280;59542;37.950;-122.338;2023-05-24T03:06:17;100895.34;;;14.28;68.51
70009;BME280;59542;37.950;-122.338;2023-05-24T03:08:44;100898.47;;;14.25;68.72
70009;BME280;59542;37.950;-122.338;2023-05-24T03:11:10;100897.63;;;14.13;69.13
70009;BME280;59542;37.950;-122.338;2023-05-24T03:13:36;100888.19;;;14.22;68.63
70009;BME280;59542;37.950;-122.338;2023-05-24T03:16:03;100886.81;;;14.01;69.25
70009;BME280;59542;37.950;-122.338;2023-05-24T03:18:29;100888.88;;;13.99;69.13
70009;BME280;59542;37.950;-122.338;2023-05-24T03:20:55;100892.72;;;13.91;69.64
70009;BME280;59542;37.950;-122.338;2023-05-24T03:23:21;100896.91;;;13.87;69.65
70009;BME280;59542;37.950;-122.338;2023-05-24T03:25:48;100901.38;;;13.93;69.59
70009;BME280;59542;37.950;-122.338;2023-05-24T03:28:14;100893.44;;;13.68;70.26
70009;BME280;59542;37.950;-122.338;2023-05-24T03:30:40;100890.66;;;13.57;71.05
70009;BME280;59542;37.950;-122.338;2023-05-24T03:33:06;100900.69;;;13.50;71.45
70009;BME280;59542;37.950;-122.338;2023-05-24T03:35:33;100918.53;;;13.44;71.76
70009;BME280;59542;37.950;-122.338;2023-05-24T03:37:59;100912.47;;;13.30;72.42
70009;BME280;59542;37.950;-122.338;2023-05-24T03:40:26;100915.44;;;13.22;72.96
70009;BME280;59542;37.950;-122.338;2023-05-24T03:42:57;100915.81;;;13.26;72.58
70009;BME280;59542;37.950;-122.338;2023-05-24T03:45:23;100923.44;;;13.29;72.43
70009;BME280;59542;37.950;-122.338;2023-05-24T03:47:49;100925.38;;;13.22;72.48
70009;BME280;59542;37.950;-122.338;2023-05-24T03:50:15;100920.00;;;13.15;72.80
70009;BME280;59542;37.950;-122.338;2023-05-24T03:52:42;100925.75;;;13.25;72.11
70009;BME280;59542;37.950;-122.338;2023-05-24T03:55:08;100910.06;;;13.22;71.90
70009;BME280;59542;37.950;-122.338;2023-05-24T03:57:34;100915.59;;;13.27;71.69
70009;BME280;59542;37.950;-122.338;2023-05-24T04:00:00;100917.94;;;13.17;72.12
70009;BME280;59542;37.950;-122.338;2023-05-24T04:02:26;100929.84;;;13.03;72.81
70009;BME280;59542;37.950;-122.338;2023-05-24T04:04:53;100937.38;;;12.94;73.47
70009;BME280;59542;37.950;-122.338;2023-05-24T04:07:19;100939.00;;;12.95;73.69
70009;BME280;59542;37.950;-122.338;2023-05-24T04:09:45;100948.69;;;12.96;73.93
70009;BME280;59542;37.950;-122.338;2023-05-24T04:12:11;100943.66;;;12.81;74.72
70009;BME280;59542;37.950;-122.338;2023-05-24T04:14:37;100943.56;;;12.94;74.30
70009;BME280;59542;37.950;-122.338;2023-05-24T04:17:04;100935.84;;;13.05;73.85
70009;BME280;59542;37.950;-122.338;2023-05-24T04:19:32;100950.28;;;13.04;74.08
70009;BME280;59542;37.950;-122.338;2023-05-24T04:21:58;100947.22;;;13.00;74.25
70009;BME280;59542;37.950;-122.338;2023-05-24T04:24:25;100937.66;;;13.04;73.98
70009;BME280;59542;37.950;-122.338;2023-05-24T04:26:51;100936.66;;;13.05;73.71
70009;BME280;59542;37.950;-122.338;2023-05-24T04:29:17;100939.44;;;12.92;73.58
70009;BME280;59542;37.950;-122.338;2023-05-24T04:31:44;100941.88;;;12.93;73.70
70009;BME280;59542;37.950;-122.338;2023-05-24T04:34:13;100941.94;;;12.87;73.61
70009;BME280;59542;37.950;-122.338;2023-05-24T04:36:39;100944.69;;;12.80;74.07
70009;BME280;59542;37.950;-122.338;2023-05-24T04:39:05;100935.22;;;12.78;73.73
70009;BME280;59542;37.950;-122.338;2023-05-24T04:41:32;100938.56;;;12.73;73.83
70009;BME280;59542;37.950;-122.338;2023-05-24T04:44:01;100939.03;;;12.63;74.67
70009;BME280;59542;37.950;-122.338;2023-05-24T04:46:27;100936.00;;;12.53;75.32
70009;BME280;59542;37.950;-122.338;2023-05-24T04:48:53;100945.50;;;12.56;75.70
70009;BME280;59542;37.950;-122.338;2023-05-24T04:51:23;100953.97;;;12.53;75.62
70009;BME280;59542;37.950;-122.338;2023-05-24T04:53:49;100959.16;;;12.48;75.74
70009;BME280;59542;37.950;-122.338;2023-05-24T04:56:15;100962.00;;;12.53;75.42
70009;BME280;59542;37.950;-122.338;2023-05-24T04:58:42;100967.03;;;12.42;75.74
70009;BME280;59542;37.950;-122.338;2023-05-24T05:01:08;100965.38;;;12.41;75.85
70009;BME280;59542;37.950;-122.338;2023-05-24T05:03:34;100961.28;;;12.32;76.43
70009;BME280;59542;37.950;-122.338;2023-05-24T05:06:01;100956.56;;;12.34;76.83
70009;BME280;59542;37.950;-122.338;2023-05-24T05:08:27;100961.06;;;12.40;76.49
70009;BME280;59542;37.950;-122.338;2023-05-24T05:10:53;100962.66;;;12.48;75.93
70009;BME280;59542;37.950;-122.338;2023-05-24T05:13:21;100972.03;;;12.39;76.71
70009;BME280;59542;37.950;-122.338;2023-05-24T05:15:47;100974.47;;;12.40;76.56
70009;BME280;59542;37.950;-122.338;2023-05-24T05:18:13;100975.56;;;12.33;77.12
70009;BME280;59542;37.950;-122.338;2023-05-24T05:20:40;100979.25;;;12.38;76.62
70009;BME280;59542;37.950;-122.338;2023-05-24T05:23:07;100980.09;;;12.32;77.06
70009;BME280;59542;37.950;-122.338;2023-05-24T05:25:33;100979.72;;;12.29;77.35
70009;BME280;59542;37.950;-122.338;2023-05-24T05:28:00;100987.13;;;12.33;77.44
70009;BME280;59542;37.950;-122.338;2023-05-24T05:30:26;100988.63;;;12.23;77.80
70009;BME280;59542;37.950;-122.338;2023-05-24T05:32:53;100990.06;;;12.19;77.96
70009;BME280;59542;37.950;-122.338;2023-05-24T05:35:19;100979.75;;;12.22;77.98
70009;BME280;59542;37.950;-122.338;2023-05-24T05:37:45;100987.16;;;12.20;77.43
70009;BME280;59542;37.950;-122.338;2023-05-24T05:40:11;100995.19;;;12.27;77.10
70009;BME280;59542;37.950;-122.338;2023-05-24T05:42:38;100988.75;;;12.34;77.14
70009;BME280;59542;37.950;-122.338;2023-05-24T05:45:04;100990.38;;;12.42;77.20
70009;BME280;59542;37.950;-122.338;2023-05-24T05:47:31;100993.34;;;12.21;78.01
70009;BME280;59542;37.950;-122.338;2023-05-24T05:49:57;100994.59;;;12.25;77.61
70009;BME280;59542;37.950;-122.338;2023-05-24T05:52:23;100989.63;;;12.28;77.73
70009;BME280;59542;37.950;-122.338;2023-05-24T05:54:49;100992.34;;;12.15;78.14
70009;BME280;59542;37.950;-122.338;2023-05-24T05:57:16;100989.22;;;12.25;77.14
70009;BME280;59542;37.950;-122.338;2023-05-24T05:59:44;100977.66;;;12.24;77.32
70009;BME280;59542;37.950;-122.338;2023-05-24T06:02:10;100985.94;;;12.23;77.35
70009;BME280;59542;37.950;-122.338;2023-05-24T06:04:37;100984.28;;;12.22;77.31
70009;BME280;59542;37.950;-122.338;2023-05-24T06:07:03;100979.31;;;12.25;77.03
70009;BME280;59542;37.950;-122.338;2023-05-24T06:09:30;100979.06;;;12.27;77.24
70009;BME280;59542;37.950;-122.338;2023-05-24T06:11:56;100962.59;;;12.23;77.20
70009;BME280;59542;37.950;-122.338;2023-05-24T06:14:22;100964.47;;;12.23;76.94
70009;BME280;59542;37.950;-122.338;2023-05-24T06:16:50;100966.13;;;12.17;77.51
70009;BME280;59542;37.950;-122.338;2023-05-24T06:19:17;100963.63;;;12.22;77.32
70009;BME280;59542;37.950;-122.338;2023-05-24T06:21:43;100965.09;;;12.18;78.05
70009;BME280;59542;37.950;-122.338;2023-05-24T06:24:18;100962.00;;;12.14;77.91
70009;BME280;59542;37.950;-122.338;2023-05-24T06:26:51;100966.97;;;12.18;77.37
70009;BME280;59542;37.950;-122.338;2023-05-24T06:29:18;100981.19;;;12.18;77.44
70009;BME280;59542;37.950;-122.338;2023-05-24T06:31:45;100984.47;;;12.20;77.52
70009;BME280;59542;37.950;-122.338;2023-05-24T06:34:12;100985.34;;;12.14;77.85
70009;BME280;59542;37.950;-122.338;2023-05-24T06:36:42;100981.41;;;12.17;77.84
70009;BME280;59542;37.950;-122.338;2023-05-24T06:39:11;100976.66;;;12.19;78.31
70009;BME280;59542;37.950;-122.338;2023-05-24T06:41:38;100977.84;;;12.29;76.97
70009;BME280;59542;37.950;-122.338;2023-05-24T06:44:04;100976.19;;;12.28;77.42
70009;BME280;59542;37.950;-122.338;2023-05-24T06:46:31;100970.88;;;12.22;77.20
70009;BME280;59542;37.950;-122.338;2023-05-24T06:48:57;100965.94;;;12.12;77.13
70009;BME280;59542;37.950;-122.338;2023-05-24T06:51:24;100971.94;;;12.07;77.57
70009;BME280;59542;37.950;-122.338;2023-05-24T06:53:50;100974.84;;;12.06;77.46
70009;BME280;59542;37.950;-122.338;2023-05-24T06:56:16;100976.06;;;12.10;76.96
70009;BME280;59542;37.950;-122.338;2023-05-24T06:58:43;100977.16;;;11.96;77.26
70009;BME280;59542;37.950;-122.338;2023-05-24T07:01:09;100957.56;;;11.95;77.68
70009;BME280;59542;37.950;-122.338;2023-05-24T07:03:36;100963.13;;;11.80;78.38
70009;BME280;59542;37.950;-122.338;2023-05-24T07:06:02;100943.16;;;11.83;78.28
70009;BME280;59542;37.950;-122.338;2023-05-24T07:08:29;100941.91;;;11.79;78.82
70009;BME280;59542;37.950;-122.338;2023-05-24T07:10:56;100936.13;;;11.75;78.79
70009;BME280;59542;37.950;-122.338;2023-05-24T07:13:22;100937.81;;;11.83;78.49
70009;BME280;59542;37.950;-122.338;2023-05-24T07:15:48;100954.69;;;11.77;78.87
70009;BME280;59542;37.950;-122.338;2023-05-24T07:18:14;100954.91;;;11.75;78.91
70009;BME280;59542;37.950;-122.338;2023-05-24T07:20:41;100964.59;;;11.89;78.30
70009;BME280;59542;37.950;-122.338;2023-05-24T07:23:07;100963.13;;;11.87;77.73
70009;BME280;59542;37.950;-122.338;2023-05-24T07:25:33;100970.16;;;11.75;78.36
70009;BME280;59542;37.950;-122.338;2023-05-24T07:28:00;100979.47;;;11.72;79.04
70009;BME280;59542;37.950;-122.338;2023-05-24T07:30:26;100985.03;;;11.77;78.85
70009;BME280;59542;37.950;-122.338;2023-05-24T07:32:53;100975.53;;;11.81;78.79
70009;BME280;59542;37.950;-122.338;2023-05-24T07:35:19;100979.69;;;11.84;78.97
70009;BME280;59542;37.950;-122.338;2023-05-24T07:37:47;100983.19;;;11.84;78.27
70009;BME280;59542;37.950;-122.338;2023-05-24T07:40:13;100979.03;;;11.88;78.36
70009;BME280;59542;37.950;-122.338;2023-05-24T07:42:40;100975.72;;;11.86;78.48
70009;BME280;59542;37.950;-122.338;2023-05-24T07:45:07;100981.25;;;11.98;78.36
70009;BME280;59542;37.950;-122.338;2023-05-24T07:47:35;100976.97;;;11.91;78.77
70009;BME280;59542;37.950;-122.338;2023-05-24T07:50:02;100974.91;;;11.86;78.93
70009;BME280;59542;37.950;-122.338;2023-05-24T07:52:28;100967.09;;;11.84;78.85
70009;BME280;59542;37.950;-122.338;2023-05-24T07:54:55;100967.88;;;11.92;78.49
70009;BME280;59542;37.950;-122.338;2023-05-24T07:57:21;100968.94;;;11.84;79.22
70009;BME280;59542;37.950;-122.338;2023-05-24T07:59:48;100974.47;;;11.96;78.49
70009;BME280;59542;37.950;-122.338;2023-05-24T08:02:14;100978.56;;;11.98;78.88
70009;BME280;59542;37.950;-122.338;2023-05-24T08:04:42;100983.09;;;12.04;78.50
70009;BME280;59542;37.950;-122.338;2023-05-24T08:07:08;100972.00;;;11.87;78.45
70009;BME280;59542;37.950;-122.338;2023-05-24T08:09:34;100970.53;;;12.05;77.78
70009;BME280;59542;37.950;-122.338;2023-05-24T08:12:07;100979.41;;;11.99;78.05
70009;BME280;59542;37.950;-122.338;2023-05-24T08:14:33;100972.59;;;12.03;77.87
70009;BME280;59542;37.950;-122.338;2023-05-24T08:16:59;100981.00;;;12.13;77.33
70009;BME280;59542;37.950;-122.338;2023-05-24T08:19:26;100978.97;;;12.08;77.67
70009;BME280;59542;37.950;-122.338;2023-05-24T08:21:56;100969.94;;;11.96;77.72
70009;BME280;59542;37.950;-122.338;2023-05-24T08:24:30;100968.25;;;12.02;77.35
70009;BME280;59542;37.950;-122.338;2023-05-24T08:26:57;100964.78;;;11.95;77.69
70009;BME280;59542;37.950;-122.338;2023-05-24T08:29:23;100968.88;;;11.97;78.03
70009;BME280;59542;37.950;-122.338;2023-05-24T08:31:49;100966.81;;;11.99;78.03
70009;BME280;59542;37.950;-122.338;2023-05-24T08:34:16;100968.69;;;11.92;77.76
70009;BME280;59542;37.950;-122.338;2023-05-24T08:36:42;100969.34;;;11.94;77.78
70009;BME280;59542;37.950;-122.338;2023-05-24T08:39:09;100961.00;;;12.09;77.79
70009;BME280;59542;37.950;-122.338;2023-05-24T08:41:35;100960.88;;;11.91;77.81
70009;BME280;59542;37.950;-122.338;2023-05-24T08:44:05;100969.53;;;11.79;78.84
70009;BME280;59542;37.950;-122.338;2023-05-24T08:46:35;100965.81;;;11.80;79.48
70009;BME280;59542;37.950;-122.338;2023-05-24T08:49:02;100964.81;;;11.81;79.31
70009;BME280;59542;37.950;-122.338;2023-05-24T08:51:29;100968.72;;;11.79;79.47
70009;BME280;59542;37.950;-122.338;2023-05-24T08:53:59;100967.50;;;11.81;78.65
70009;BME280;59542;37.950;-122.338;2023-05-24T08:56:27;100968.72;;;11.79;78.84
70009;BME280;59542;37.950;-122.338;2023-05-24T08:58:56;100957.56;;;11.75;79.57
70009;BME280;59542;37.950;-122.338;2023-05-24T09:01:25;100962.53;;;11.78;80.09
70009;BME280;59542;37.950;-122.338;2023-05-24T09:03:53;100955.72;;;11.89;78.33
70009;BME280;59542;37.950;-122.338;2023-05-24T09:06:20;100964.97;;;11.93;77.94
70009;BME280;59542;37.950;-122.338;2023-05-24T09:08:50;100955.06;;;11.94;78.50
70009;BME280;59542;37.950;-122.338;2023-05-24T09:11:19;100961.06;;;11.96;78.35
70009;BME280;59542;37.950;-122.338;2023-05-24T09:13:47;100968.03;;;12.03;77.42
70009;BME280;59542;37.950;-122.338;2023-05-24T09:16:15;100968.47;;;11.94;77.38
70009;BME280;59542;37.950;-122.338;2023-05-24T09:18:41;100975.50;;;11.95;77.46
70009;BME280;59542;37.950;-122.338;2023-05-24T09:21:11;100965.22;;;11.85;77.18
70009;BME280;59542;37.950;-122.338;2023-05-24T09:23:39;100956.34;;;11.84;77.58
70009;BME280;59542;37.950;-122.338;2023-05-24T09:26:06;100956.75;;;11.81;77.18
70009;BME280;59542;37.950;-122.338;2023-05-24T09:28:34;100956.75;;;11.75;77.77
70009;BME280;59542;37.950;-122.338;2023-05-24T09:31:02;100959.03;;;11.84;77.46
70009;BME280;59542;37.950;-122.338;2023-05-24T09:33:30;100951.00;;;11.84;77.23
70009;BME280;59542;37.950;-122.338;2023-05-24T09:35:58;100955.09;;;11.80;77.60
70009;BME280;59542;37.950;-122.338;2023-05-24T09:38:25;100957.78;;;11.80;77.69
70009;BME280;59542;37.950;-122.338;2023-05-24T09:41:03;100966.44;;;11.82;77.76
70009;BME280;59542;37.950;-122.338;2023-05-24T09:43:32;100981.91;;;11.80;78.00
70009;BME280;59542;37.950;-122.338;2023-05-24T09:46:04;100977.59;;;11.73;78.36
70009;BME280;59542;37.950;-122.338;2023-05-24T09:48:30;100974.09;;;11.79;78.16
70009;BME280;59542;37.950;-122.338;2023-05-24T09:51:07;100971.63;;;11.84;76.69
70009;BME280;59542;37.950;-122.338;2023-05-24T09:53:36;100991.41;;;11.89;76.56
70009;BME280;59542;37.950;-122.338;2023-05-24T09:56:04;100989.31;;;11.98;76.53
70009;BME280;59542;37.950;-122.338;2023-05-24T09:58:32;100988.28;;;11.93;76.55
70009;BME280;59542;37.950;-122.338;2023-05-24T10:01:09;100992.25;;;11.90;76.64
70009;BME280;59542;37.950;-122.338;2023-05-24T10:03:56;101004.38;;;11.93;77.08
70009;BME280;59542;37.950;-122.338;2023-05-24T10:06:24;100998.78;;;12.07;76.44
70009;BME280;59542;37.950;-122.338;2023-05-24T10:08:51;100996.91;;;12.08;76.57
70009;BME280;59542;37.950;-122.338;2023-05-24T10:11:19;100994.25;;;12.08;76.62
70009;BME280;59542;37.950;-122.338;2023-05-24T10:13:48;101001.88;;;12.04;76.45
70009;BME280;59542;37.950;-122.338;2023-05-24T10:16:15;101004.16;;;12.07;75.95
70009;BME280;59542;37.950;-122.338;2023-05-24T10:18:41;101015.91;;;12.06;75.22
70009;BME280;59542;37.950;-122.338;2023-05-24T10:21:08;101016.97;;;12.05;75.42
70009;BME280;59542;37.950;-122.338;2023-05-24T10:23:37;101014.47;;;12.04;75.80
70009;BME280;59542;37.950;-122.338;2023-05-24T10:26:09;101000.66;;;12.00;75.95
70009;BME280;59542;37.950;-122.338;2023-05-24T10:28:44;101002.94;;;11.97;76.16
70009;BME280;59542;37.950;-122.338;2023-05-24T10:31:37;101010.38;;;11.95;76.47
70009;BME280;59542;37.950;-122.338;2023-05-24T10:34:05;101005.03;;;11.95;76.42
70009;BME280;59542;37.950;-122.338;2023-05-24T10:36:33;100998.84;;;11.94;76.61
70009;BME280;59542;37.950;-122.338;2023-05-24T10:39:00;100997.16;;;11.93;76.77
70009;BME280;59542;37.950;-122.338;2023-05-24T10:41:26;101006.03;;;11.94;77.10
70009;BME280;59542;37.950;-122.338;2023-05-24T10:43:53;100997.97;;;11.94;77.27
70009;BME280;59542;37.950;-122.338;2023-05-24T10:46:20;100993.06;;;11.91;77.48
70009;BME280;59542;37.950;-122.338;2023-05-24T10:49:00;101005.69;;;11.83;77.37
70009;BME280;59542;37.950;-122.338;2023-05-24T10:51:29;100997.19;;;11.80;77.69
70009;BME280;59542;37.950;-122.338;2023-05-24T10:53:57;100996.97;;;11.95;77.05
70009;BME280;59542;37.950;-122.338;2023-05-24T10:56:40;101004.38;;;11.93;77.33
70009;BME280;59542;37.950;-122.338;2023-05-24T10:59:07;101000.88;;;11.92;77.76
70009;BME280;59542;37.950;-122.338;2023-05-24T11:01:33;100985.44;;;11.74;78.33
70009;BME280;59542;37.950;-122.338;2023-05-24T11:04:14;100984.00;;;11.78;78.23
70009;BME280;59542;37.950;-122.338;2023-05-24T11:07:05;100974.91;;;11.86;77.31
70009;BME280;59542;37.950;-122.338;2023-05-24T11:09:37;100972.84;;;11.81;78.09
70009;BME280;59542;37.950;-122.338;2023-05-24T11:12:18;100972.84;;;11.81;78.42
70009;BME280;59542;37.950;-122.338;2023-05-24T11:14:51;100962.94;;;11.75;78.23
70009;BME280;59542;37.950;-122.338;2023-05-24T11:17:22;100960.06;;;11.70;78.08
70009;BME280;59542;37.950;-122.338;2023-05-24T11:19:53;100961.28;;;11.81;77.87
70009;BME280;59542;37.950;-122.338;2023-05-24T11:22:22;100963.78;;;11.82;77.74
70009;BME280;59542;37.950;-122.338;2023-05-24T11:24:50;100961.94;;;11.83;77.91
70009;BME280;59542;37.950;-122.338;2023-05-24T11:27:16;100965.00;;;11.86;78.41
70009;BME280;59542;37.950;-122.338;2023-05-24T11:29:44;100978.00;;;11.76;78.90
70009;BME280;59542;37.950;-122.338;2023-05-24T11:32:20;100974.88;;;11.93;78.51
70009;BME280;59542;37.950;-122.338;2023-05-24T11:34:48;100980.06;;;11.87;78.35
70009;BME280;59542;37.950;-122.338;2023-05-24T11:37:16;100981.72;;;11.88;77.93
70009;BME280;59542;37.950;-122.338;2023-05-24T11:39:42;100977.38;;;11.81;78.47
70009;BME280;59542;37.950;-122.338;2023-05-24T11:42:09;100993.06;;;11.91;77.74
70009;BME280;59542;37.950;-122.338;2023-05-24T11:44:35;100996.78;;;11.70;78.57
70009;BME280;59542;37.950;-122.338;2023-05-24T11:47:06;101004.19;;;11.81;78.20
70009;BME280;59542;37.950;-122.338;2023-05-24T11:49:33;100998.22;;;11.79;78.16
70009;BME280;59542;37.950;-122.338;2023-05-24T11:52:00;100994.28;;;11.88;77.72
70009;BME280;59542;37.950;-122.338;2023-05-24T11:54:27;100992.03;;;11.78;78.02
70009;BME280;59542;37.950;-122.338;2023-05-24T11:56:55;100988.34;;;11.59;78.09
70009;BME280;59542;37.950;-122.338;2023-05-24T11:59:27;100987.72;;;11.64;77.72
70009;BME280;59542;37.950;-122.338;2023-05-24T12:01:58;100998.66;;;11.69;77.92
70009;BME280;59542;37.950;-122.338;2023-05-24T12:04:25;101009.78;;;11.73;77.59
70009;BME280;59542;37.950;-122.338;2023-05-24T12:06:55;101006.06;;;11.74;77.31
70009;BME280;59542;37.950;-122.338;2023-05-24T12:09:22;101003.00;;;11.83;77.18
70009;BME280;59542;37.950;-122.338;2023-05-24T12:11:49;101001.75;;;11.73;78.33
70009;BME280;59542;37.950;-122.338;2023-05-24T12:14:22;101006.09;;;11.67;79.11
70009;BME280;59542;37.950;-122.338;2023-05-24T12:16:53;101012.66;;;11.71;79.20
70009;BME280;59542;37.950;-122.338;2023-05-24T12:19:24;101021.53;;;11.65;78.64
70009;BME280;59542;37.950;-122.338;2023-05-24T12:21:56;101010.81;;;11.58;78.70
70009;BME280;59542;37.950;-122.338;2023-05-24T12:24:23;101017.00;;;11.66;78.28
70009;BME280;59542;37.950;-122.338;2023-05-24T12:26:50;101023.41;;;11.64;78.70
70009;BME280;59542;37.950;-122.338;2023-05-24T12:29:18;101026.06;;;11.71;78.14
70009;BME280;59542;37.950;-122.338;2023-05-24T12:31:47;101037.03;;;11.63;77.47
70009;BME280;59542;37.950;-122.338;2023-05-24T12:34:20;101032.69;;;11.62;77.64